Time;durP1;ratioP1;P1;durP2;ratioP2;P2;SDS_P1;SDS_P2;PMS_P1;PMS_P2;Temp;Humidity;BMP_temperature;BMP_pressure;BME280_temperature;BME280_humidity;BME280_pressure;Samples;Min_cycle;Max_cycle;Signal;HPM_P1;HPM_P2
2021/03/05 00:01:26;;;;;;;15.07;9.63;;;;;;;3.07;94.76;101822.06;4919847;29;20054;-78
2021/03/05 00:03:52;;;;;;;16.45;11.25;;;;;;;3.03;93.91;101829.34;4953863;28;20487;-79
2021/03/05 00:06:18;;;;;;;16.33;9.63;;;;;;;3.00;94.36;101836.63;4940528;28;20055;-78
2021/03/05 00:08:43;;;;;;;13.65;9.75;;;;;;;2.99;93.94;101845.50;4941447;29;20556;-78
2021/03/05 00:11:09;;;;;;;15.45;9.90;;;;;;;2.98;93.91;101847.31;4938600;28;20130;-78
2021/03/05 00:13:34;;;;;;;15.80;10.38;;;;;;;2.94;93.77;101849.31;4954310;28;20083;-79
2021/03/05 00:15:59;;;;;;;14.93;9.95;;;;;;;2.97;94.17;101850.06;4930662;29;20050;-79
2021/03/05 00:18:25;;;;;;;19.83;10.50;;;;;;;2.98;93.91;101857.06;4950892;28;20101;-79
2021/03/05 00:20:52;;;;;;;14.48;9.75;;;;;;;2.92;93.84;101861.78;4950967;28;20142;-79
2021/03/05 00:23:20;;;;;;;17.10;9.95;;;;;;;2.91;93.45;101864.53;4950399;28;20436;-79
2021/03/05 00:25:48;;;;;;;17.95;10.95;;;;;;;2.90;93.60;101868.97;4951297;28;20425;-79
2021/03/05 00:28:14;;;;;;;15.93;10.47;;;;;;;2.87;93.43;101863.84;4951286;28;20674;-79
2021/03/05 00:30:39;;;;;;;15.23;10.38;;;;;;;2.82;92.87;101865.94;4944750;28;20397;-79
2021/03/05 00:33:05;;;;;;;15.85;10.13;;;;;;;2.82;93.13;101875.66;4946611;28;20055;-79
2021/03/05 00:35:31;;;;;;;17.40;10.30;;;;;;;2.80;94.12;101872.25;4948693;28;20460;-79
2021/03/05 00:37:57;;;;;;;15.32;10.77;;;;;;;2.72;92.70;101880.63;4948912;28;20126;-79
2021/03/05 00:40:23;;;;;;;16.05;10.93;;;;;;;2.70;94.24;101875.44;4932225;28;20043;-79
2021/03/05 00:42:50;;;;;;;14.77;9.65;;;;;;;2.66;93.54;101881.00;4931833;28;20063;-79
2021/03/05 00:45:18;;;;;;;15.38;9.50;;;;;;;2.61;93.17;101883.03;4945479;28;20044;-79
2021/03/05 00:47:44;;;;;;;11.05;7.97;;;;;;;2.59;93.59;101884.91;4942348;28;20381;-79
2021/03/05 00:50:11;;;;;;;13.20;8.40;;;;;;;2.48;92.24;101890.81;4934745;28;20039;-79
2021/03/05 00:52:37;;;;;;;12.30;8.50;;;;;;;2.46;92.62;101885.59;4915309;29;20051;-78
2021/03/05 00:55:06;;;;;;;12.32;9.18;;;;;;;2.34;91.65;101890.72;4922327;28;20043;-79
2021/03/05 00:57:32;;;;;;;13.52;8.60;;;;;;;2.35;92.54;101895.09;4942053;28;20067;-79
2021/03/05 00:59:57;;;;;;;13.20;8.48;;;;;;;2.29;93.42;101901.56;4958850;28;20081;-78
2021/03/05 01:02:23;;;;;;;13.23;8.13;;;;;;;2.19;92.14;101908.31;4949796;28;20046;-78
2021/03/05 01:04:48;;;;;;;12.23;8.55;;;;;;;2.10;93.44;101907.03;4949109;28;20106;-79
2021/03/05 01:07:13;;;;;;;13.55;8.43;;;;;;;2.04;93.13;101907.31;4945191;28;20528;-78
2021/03/05 01:09:39;;;;;;;13.18;8.38;;;;;;;2.03;94.85;101910.91;4951309;29;21123;-78
2021/03/05 01:12:05;;;;;;;12.18;7.90;;;;;;;1.91;93.19;101920.38;4952225;28;20050;-79
2021/03/05 01:14:30;;;;;;;10.82;7.78;;;;;;;1.84;93.37;101924.25;4951284;29;20058;-78
2021/03/05 01:16:56;;;;;;;11.68;7.40;;;;;;;1.73;93.23;101922.19;4947498;28;20488;-78
2021/03/05 01:19:22;;;;;;;10.48;6.88;;;;;;;1.66;92.89;101926.06;4949623;28;20541;-78
2021/03/05 01:21:47;;;;;;;10.35;6.80;;;;;;;1.70;94.05;101938.22;4912456;29;20047;-78
2021/03/05 01:24:13;;;;;;;9.30;6.15;;;;;;;1.54;93.01;101940.78;4948158;28;20039;-79
2021/03/05 01:26:41;;;;;;;11.25;6.78;;;;;;;1.59;93.68;101935.28;4962250;28;20047;-78
2021/03/05 01:29:08;;;;;;;10.13;5.95;;;;;;;1.53;93.25;101944.38;4945618;28;20039;-79
2021/03/05 01:31:34;;;;;;;11.25;5.75;;;;;;;1.46;93.29;101945.63;4931927;28;20487;-79
2021/03/05 01:34:00;;;;;;;8.98;5.50;;;;;;;1.47;92.49;101939.41;4941801;28;20515;-79
2021/03/05 01:36:25;;;;;;;9.68;5.50;;;;;;;1.42;91.82;101941.41;4946152;28;20134;-79
2021/03/05 01:38:51;;;;;;;8.65;5.03;;;;;;;1.41;92.42;101934.44;4914953;28;20052;-79
2021/03/05 01:41:16;;;;;;;8.05;5.07;;;;;;;1.37;92.04;101942.59;4944264;28;20082;-79
2021/03/05 01:43:41;;;;;;;13.90;6.65;;;;;;;1.28;90.75;101941.25;4947411;28;20126;-79
2021/03/05 01:46:07;;;;;;;8.60;5.00;;;;;;;1.21;91.78;101946.00;4947858;28;20239;-79
2021/03/05 01:48:37;;;;;;;7.65;4.55;;;;;;;1.20;91.55;101946.06;4947583;28;20487;-78
2021/03/05 01:51:19;;;;;;;8.23;4.93;;;;;;;1.06;90.59;101952.03;4949148;28;20380;-78
2021/03/05 01:53:46;;;;;;;7.35;4.82;;;;;;;1.05;92.40;101952.97;4929872;29;20416;-79
2021/03/05 01:56:39;;;;;;;8.18;3.92;;;;;;;0.97;90.79;101952.47;4953204;28;20391;-78
2021/03/05 01:59:08;;;;;;;6.75;4.13;;;;;;;0.88;90.38;101964.34;4951660;28;20071;-79
2021/03/05 02:01:34;;;;;;;;;;;;;;;0.92;91.69;101965.03;4947728;28;20047;-79
2021/03/05 02:04:01;;;;;;;8.77;5.00;;;;;;;0.78;91.85;101973.66;4961736;28;19918;-79
2021/03/05 02:06:26;;;;;;;7.38;4.65;;;;;;;0.72;93.32;101966.88;4947886;28;20048;-78
2021/03/05 02:08:52;;;;;;;6.60;4.50;;;;;;;0.72;91.46;101974.81;4948181;28;20062;-78
2021/03/05 02:11:22;;;;;;;9.70;5.15;;;;;;;0.72;93.09;101979.19;4954280;28;20040;-79
2021/03/05 02:13:49;;;;;;;8.07;4.32;;;;;;;0.68;92.79;101973.22;4943599;28;20107;-79
2021/03/05 02:16:25;;;;;;;7.78;4.63;;;;;;;0.61;92.62;101985.00;4943102;28;20043;-79
2021/03/05 02:19:09;;;;;;;7.43;4.35;;;;;;;0.59;92.32;101982.41;4941957;28;20047;-79
2021/03/05 02:22:12;;;;;;;7.13;4.20;;;;;;;0.56;94.29;101979.91;4941870;28;20047;-78
2021/03/05 02:25:06;;;;;;;8.98;4.45;;;;;;;0.43;93.15;101984.03;4945810;28;20052;-78
2021/03/05 02:27:50;;;;;;;7.72;4.55;;;;;;;0.44;93.02;101996.34;4960011;28;20102;-78
2021/03/05 02:30:40;;;;;;;6.80;4.32;;;;;;;0.42;93.60;101992.91;4943183;28;20046;-79
2021/03/05 02:33:19;;;;;;;8.73;5.07;;;;;;;0.44;93.60;101991.06;4943058;28;20053;-78
2021/03/05 02:35:46;;;;;;;;;;;;;;;0.30;92.02;101998.75;4957734;28;20497;-78
2021/03/05 02:38:15;;;;;;;8.40;4.30;;;;;;;0.17;92.51;101996.66;4946114;28;20453;-78
2021/03/05 02:40:43;;;;;;;6.65;4.13;;;;;;;0.10;91.35;102000.47;4947125;28;20054;-79
2021/03/05 02:43:12;;;;;;;7.20;4.18;;;;;;;0.12;92.78;101996.00;4950634;28;20035;-78
2021/03/05 02:45:40;;;;;;;5.88;3.83;;;;;;;0.20;92.96;102001.81;4951135;28;20050;-78
2021/03/05 02:48:12;;;;;;;5.03;3.30;;;;;;;0.17;91.44;102004.56;4951766;28;20127;-78
2021/03/05 02:50:41;;;;;;;6.93;3.30;;;;;;;0.10;90.70;102007.53;4933445;28;20520;-78
2021/03/05 02:53:12;;;;;;;5.60;3.05;;;;;;;0.09;91.15;102013.75;4933049;28;20047;-78
2021/03/05 02:55:39;;;;;;;5.18;3.15;;;;;;;0.05;90.11;102015.66;4925669;28;20047;-78
2021/03/05 02:58:07;;;;;;;7.97;3.60;;;;;;;0.02;90.57;102021.06;4939451;28;20395;-79
2021/03/05 03:00:33;;;;;;;5.47;3.33;;;;;;;-0.02;90.55;102019.50;4929054;29;20446;-79
2021/03/05 03:02:59;;;;;;;6.47;3.15;;;;;;;-0.10;88.88;102029.50;4930920;29;20044;-79
2021/03/05 03:05:27;;;;;;;6.43;3.47;;;;;;;-0.14;91.12;102031.44;4943134;28;20086;-80
2021/03/05 03:07:54;;;;;;;6.47;3.50;;;;;;;-0.08;91.27;102033.81;4951142;28;20106;-79
2021/03/05 03:10:22;;;;;;;7.28;3.40;;;;;;;-0.11;90.71;102033.09;4951271;28;20041;-79
2021/03/05 03:12:52;;;;;;;7.60;3.63;;;;;;;-0.15;90.60;102031.47;4930414;29;20054;-80
2021/03/05 03:15:18;;;;;;;6.20;3.03;;;;;;;-0.20;91.14;102034.34;4954175;28;20504;-79
2021/03/05 03:17:46;;;;;;;6.78;3.13;;;;;;;-0.27;90.35;102041.63;4952627;28;20039;-80
2021/03/05 03:20:14;;;;;;;5.80;3.30;;;;;;;-0.32;90.93;102042.75;4934444;28;20090;-80
2021/03/05 03:22:40;;;;;;;6.80;3.30;;;;;;;-0.38;90.74;102038.56;4951608;28;20532;-79
2021/03/05 03:25:06;;;;;;;8.77;3.00;;;;;;;-0.44;89.81;102046.75;4949097;28;20134;-79
2021/03/05 03:27:32;;;;;;;7.38;3.90;;;;;;;-0.39;90.76;102046.56;4948429;28;20062;-79
2021/03/05 03:29:59;;;;;;;9.57;3.35;;;;;;;-0.35;90.46;102050.78;4966756;28;20050;-79
2021/03/05 03:32:25;;;;;;;6.35;3.83;;;;;;;-0.41;91.37;102058.94;4952315;28;20050;-80
2021/03/05 03:34:50;;;;;;;5.43;3.20;;;;;;;-0.37;91.81;102057.91;4938435;28;20166;-79
2021/03/05 03:37:18;;;;;;;6.57;3.22;;;;;;;-0.41;91.31;102065.06;4951561;28;20058;-79
2021/03/05 03:39:44;;;;;;;5.50;3.28;;;;;;;-0.48;90.12;102059.19;4950793;28;20123;-80
2021/03/05 03:42:09;;;;;;;5.22;2.80;;;;;;;-0.47;90.54;102070.59;4945777;28;20035;-79
2021/03/05 03:44:34;;;;;;;5.55;2.60;;;;;;;-0.43;93.08;102066.06;4948383;28;20062;-80
2021/03/05 03:47:00;;;;;;;5.47;2.80;;;;;;;-0.55;91.18;102077.97;4934155;29;20043;-80
2021/03/05 03:49:33;;;;;;;5.05;2.90;;;;;;;-0.59;91.47;102082.50;4951508;28;20559;-79
2021/03/05 03:52:02;;;;;;;4.40;2.75;;;;;;;-0.67;89.91;102084.59;4948924;28;20059;-79
2021/03/05 03:54:29;;;;;;;5.50;2.60;;;;;;;-0.66;91.09;102090.72;4962269;28;20519;-80
2021/03/05 03:57:01;;;;;;;5.78;3.08;;;;;;;-0.63;91.37;102095.84;4930837;29;20101;-80
2021/03/05 03:59:30;;;;;;;6.47;2.83;;;;;;;-0.62;91.27;102092.31;4949778;29;20129;-80
2021/03/05 04:01:56;;;;;;;;;;;;;;;-0.66;90.02;102103.88;4953584;28;20050;-80
2021/03/05 04:04:24;;;;;;;5.57;2.67;;;;;;;-0.78;90.59;102100.81;4952382;28;19914;-80
2021/03/05 04:06:52;;;;;;;5.07;2.53;;;;;;;-0.75;90.29;102102.47;4951500;28;20040;-80
2021/03/05 04:09:19;;;;;;;5.55;2.65;;;;;;;-0.77;90.48;102107.81;4949863;28;20139;-79
2021/03/05 04:11:44;;;;;;;6.18;2.85;;;;;;;-0.76;90.71;102109.53;4953974;28;20653;-79
2021/03/05 04:14:10;;;;;;;8.15;2.60;;;;;;;-0.86;89.39;102102.91;4939988;28;20101;-79
2021/03/05 04:16:36;;;;;;;5.18;2.45;;;;;;;-0.78;90.76;102102.59;4954014;28;20039;-80
2021/03/05 04:19:03;;;;;;;5.57;2.65;;;;;;;-0.77;90.48;102110.47;4952631;28;20166;-79
2021/03/05 04:21:34;;;;;;;7.45;2.88;;;;;;;-0.79;90.92;102116.69;4933280;29;20047;-79
2021/03/05 04:24:01;;;;;;;6.18;2.72;;;;;;;-0.82;90.65;102125.59;4948711;28;20097;-79
2021/03/05 04:26:26;;;;;;;5.53;2.72;;;;;;;-0.91;88.77;102128.56;4948529;28;20493;-78
2021/03/05 04:28:52;;;;;;;6.75;2.65;;;;;;;-0.94;89.94;102123.41;4951483;28;20113;-80
2021/03/05 04:31:17;;;;;;;6.13;3.10;;;;;;;-0.89;91.83;102131.13;4950444;28;20448;-80
2021/03/05 04:33:43;;;;;;;5.65;2.85;;;;;;;-0.83;91.50;102128.28;4934968;29;20039;-79
2021/03/05 04:36:08;;;;;;;6.95;2.90;;;;;;;-0.88;91.75;102139.00;4935526;29;20096;-78
2021/03/05 04:38:33;;;;;;;6.13;2.60;;;;;;;-1.01;89.49;102127.19;4935496;29;20374;-79
2021/03/05 04:40:59;;;;;;;4.82;2.20;;;;;;;-0.95;89.85;102140.13;4936251;29;20043;-78
2021/03/05 04:43:25;;;;;;;5.70;2.63;;;;;;;-0.97;90.75;102137.56;4945704;28;20571;-79
2021/03/05 04:45:50;;;;;;;7.95;2.78;;;;;;;-0.96;90.35;102147.19;4933226;28;20047;-78
2021/03/05 04:48:16;;;;;;;5.70;2.78;;;;;;;-1.03;90.97;102145.69;4933709;29;20042;-78
2021/03/05 04:50:41;;;;;;;4.65;2.33;;;;;;;-0.94;92.83;102144.50;4949387;28;20097;-78
2021/03/05 04:53:07;;;;;;;5.55;2.35;;;;;;;-1.03;91.27;102150.13;4935044;29;20049;-78
2021/03/05 04:55:33;;;;;;;5.13;2.50;;;;;;;-1.12;91.00;102151.31;4950880;28;20055;-79
2021/03/05 04:57:58;;;;;;;4.65;2.55;;;;;;;-1.08;92.37;102146.78;4934534;28;20173;-79
2021/03/05 05:00:24;;;;;;;5.18;2.28;;;;;;;-1.08;91.90;102154.69;4934184;29;20051;-78
2021/03/05 05:02:49;;;;;;;3.80;2.13;;;;;;;-1.11;91.11;102154.81;4934497;29;20035;-78
2021/03/05 05:05:15;;;;;;;5.25;2.42;;;;;;;-1.16;90.39;102158.44;4934604;29;20031;-78
2021/03/05 05:07:41;;;;;;;5.43;2.53;;;;;;;-1.18;91.22;102152.41;4952285;29;20473;-78
2021/03/05 05:10:06;;;;;;;9.63;3.40;;;;;;;-1.15;91.51;102157.56;4950536;29;20090;-78
2021/03/05 05:12:32;;;;;;;8.65;3.28;;;;;;;-1.13;92.24;102166.22;4945914;29;20174;-78
2021/03/05 05:14:57;;;;;;;6.70;4.35;;;;;;;-1.20;90.82;102169.16;4933245;29;20081;-79
2021/03/05 05:17:22;;;;;;;6.05;3.63;;;;;;;-1.28;90.56;102161.53;4947063;28;20047;-78
2021/03/05 05:19:48;;;;;;;13.25;5.03;;;;;;;-1.25;92.99;102158.78;4931611;28;20058;-79
2021/03/05 05:22:13;;;;;;;16.95;5.78;;;;;;;-1.28;92.03;102174.69;4945632;28;20134;-79
2021/03/05 05:24:38;;;;;;;8.88;4.97;;;;;;;-1.32;92.31;102173.09;4935365;28;20054;-78
2021/03/05 05:27:05;;;;;;;6.63;3.15;;;;;;;-1.37;91.28;102172.41;4942139;28;20575;-79
2021/03/05 05:29:30;;;;;;;9.38;3.85;;;;;;;-1.45;90.42;102177.06;4927367;29;20533;-78
2021/03/05 05:31:56;;;;;;;19.17;10.68;;;;;;;-1.45;91.63;102179.69;4932612;29;20054;-78
2021/03/05 05:34:21;;;;;;;23.38;15.00;;;;;;;-1.43;92.07;102188.41;4913651;29;20039;-78
2021/03/05 05:36:47;;;;;;;17.77;10.00;;;;;;;-1.45;92.77;102195.50;4913975;29;20118;-78
2021/03/05 05:39:12;;;;;;;11.57;7.32;;;;;;;-1.48;91.81;102200.88;4934800;28;20047;-78
2021/03/05 05:41:39;;;;;;;10.13;5.28;;;;;;;-1.58;90.78;102189.81;4924834;29;20047;-78
2021/03/05 05:44:05;;;;;;;7.85;4.20;;;;;;;-1.47;92.73;102205.22;4926484;29;20046;-77
2021/03/05 05:46:31;;;;;;;8.68;5.35;;;;;;;-1.58;90.51;102205.59;4932630;29;20392;-79
2021/03/05 05:48:57;;;;;;;11.20;5.70;;;;;;;-1.53;91.74;102213.31;4950499;28;20070;-78
2021/03/05 05:51:24;;;;;;;11.80;6.05;;;;;;;-1.57;92.54;102212.56;4951392;28;20070;-78
2021/03/05 05:53:51;;;;;;;10.50;4.38;;;;;;;-1.55;93.16;102209.88;4950215;28;20051;-78
2021/03/05 05:56:18;;;;;;;5.82;3.55;;;;;;;-1.64;92.43;102226.84;4923598;28;20062;-77
2021/03/05 05:58:44;;;;;;;5.95;2.95;;;;;;;-1.68;91.55;102228.72;4943214;28;20090;-78
2021/03/05 06:01:11;;;;;;;12.52;5.90;;;;;;;-1.68;92.66;102231.34;4938686;28;20032;-79
2021/03/05 06:03:37;;;;;;;11.55;5.97;;;;;;;-1.71;91.53;102228.81;4943596;28;20059;-78
2021/03/05 06:06:03;;;;;;;12.75;7.07;;;;;;;-1.71;92.76;102226.19;4951836;28;20042;-79
2021/03/05 06:08:29;;;;;;;11.27;6.00;;;;;;;-1.86;91.51;102232.81;4948622;28;20051;-78
2021/03/05 06:10:56;;;;;;;10.18;5.00;;;;;;;-1.80;92.55;102238.78;4947490;28;20069;-78
2021/03/05 06:13:25;;;;;;;10.82;5.20;;;;;;;-1.76;93.96;102249.16;4948251;28;20062;-79
2021/03/05 06:16:26;;;;;;;9.77;5.13;;;;;;;-1.71;93.46;102247.25;4944891;28;20058;-79
2021/03/05 06:18:51;;;;;;;7.20;4.30;;;;;;;-1.77;92.59;102254.50;4905473;29;20138;-77
2021/03/05 06:21:17;;;;;;;9.10;5.35;;;;;;;-1.84;92.84;102261.72;4936023;28;20147;-78
2021/03/05 06:24:12;;;;;;;9.07;4.75;;;;;;;-1.82;92.60;102265.16;4954889;28;20110;-78
2021/03/05 06:26:47;;;;;;;7.43;4.72;;;;;;;-1.83;92.88;102279.22;4936365;28;20039;-78
2021/03/05 06:29:12;;;;;;;9.48;6.55;;;;;;;-1.85;92.76;102284.53;4938068;29;20496;-78
2021/03/05 06:31:37;;;;;;;7.75;5.25;;;;;;;-1.82;93.56;102297.59;4948305;28;20106;-77
2021/03/05 06:34:04;;;;;;;11.25;5.30;;;;;;;-1.81;93.44;102277.41;4948825;28;20043;-79
2021/03/05 06:36:30;;;;;;;11.88;5.55;;;;;;;-1.78;94.01;102289.59;4947588;28;20044;-79
2021/03/05 06:38:56;;;;;;;11.38;6.30;;;;;;;-1.75;94.29;102300.91;4953757;28;20054;-78
2021/03/05 06:41:25;;;;;;;9.93;6.32;;;;;;;-1.75;93.23;102293.00;4952191;28;20047;-79
2021/03/05 06:43:58;;;;;;;7.47;4.68;;;;;;;-1.77;94.03;102291.34;4952624;28;20043;-79
2021/03/05 06:46:31;;;;;;;12.10;6.47;;;;;;;-1.75;94.18;102292.16;4948292;28;20043;-77
2021/03/05 06:48:57;;;;;;;10.23;5.78;;;;;;;-1.72;94.55;102311.34;4953424;28;20047;-79
2021/03/05 06:51:23;;;;;;;11.20;6.35;;;;;;;-1.72;94.35;102303.44;4944181;28;20162;-78
2021/03/05 06:53:48;;;;;;;9.73;5.72;;;;;;;-1.68;94.00;102306.81;4949286;28;21489;-78
2021/03/05 06:56:30;;;;;;;13.00;5.85;;;;;;;-1.67;93.74;102311.16;4948315;28;20047;-78
2021/03/05 06:59:02;;;;;;;11.40;7.07;;;;;;;-1.62;93.91;102315.38;4966781;28;20047;-77
2021/03/05 07:01:27;;;;;;;10.95;6.32;;;;;;;-1.61;93.68;102314.50;4951736;28;20051;-77
2021/03/05 07:04:06;;;;;;;15.00;6.97;;;;;;;-1.62;93.31;102317.16;4950766;28;20389;-77
2021/03/05 07:06:32;;;;;;;10.98;6.07;;;;;;;-1.51;94.00;102324.72;4951465;28;20075;-77
2021/03/05 07:08:57;;;;;;;12.15;7.15;;;;;;;-1.41;94.00;102332.28;4951019;28;20063;-79
2021/03/05 07:11:40;;;;;;;9.40;5.25;;;;;;;-1.36;93.71;102329.47;4949375;28;20408;-78
2021/03/05 07:14:08;;;;;;;9.05;5.10;;;;;;;-1.26;94.28;102332.69;4947572;28;20161;-77
2021/03/05 07:16:39;;;;;;;11.13;4.90;;;;;;;-1.28;92.12;102351.19;4945677;28;20071;-77
2021/03/05 07:19:04;;;;;;;9.38;4.97;;;;;;;-1.21;93.16;102357.97;4948552;28;20319;-79
2021/03/05 07:21:31;;;;;;;7.75;4.30;;;;;;;-1.19;91.39;102357.91;4949201;28;20039;-77
2021/03/05 07:23:57;;;;;;;8.55;3.90;;;;;;;-1.06;93.02;102367.16;4950150;28;20054;-78
2021/03/05 07:26:23;;;;;;;6.57;3.47;;;;;;;-0.99;91.97;102362.53;4938236;28;20515;-78
2021/03/05 07:28:48;;;;;;;6.40;3.08;;;;;;;-0.91;92.47;102366.63;4951758;28;20079;-79
2021/03/05 07:31:23;;;;;;;7.95;3.40;;;;;;;-0.94;90.23;102364.09;4932028;28;20043;-77
2021/03/05 07:33:57;;;;;;;7.30;3.03;;;;;;;-0.82;92.13;102369.88;4941125;28;20055;-79
2021/03/05 07:36:27;;;;;;;5.18;2.67;;;;;;;-0.73;92.48;102378.31;4948305;28;20492;-77
2021/03/05 07:38:57;;;;;;;5.65;2.92;;;;;;;-0.72;89.94;102374.78;4931115;29;20054;-78
2021/03/05 07:41:24;;;;;;;8.35;2.80;;;;;;;-0.62;91.38;102382.38;4951954;29;20078;-77
2021/03/05 07:43:50;;;;;;;6.95;3.30;;;;;;;-0.53;91.59;102379.41;4953927;29;20432;-79
2021/03/05 07:46:16;;;;;;;11.00;3.17;;;;;;;-0.54;89.14;102377.69;4952274;28;20547;-78
2021/03/05 07:48:45;;;;;;;6.40;3.08;;;;;;;-0.38;91.10;102377.97;4949349;28;20182;-77
2021/03/05 07:51:11;;;;;;;6.20;3.15;;;;;;;-0.34;90.49;102377.84;4925570;28;20039;-79
2021/03/05 07:53:53;;;;;;;5.07;2.70;;;;;;;-0.30;89.87;102375.94;4934333;29;20129;-78
2021/03/05 07:56:44;;;;;;;6.30;2.70;;;;;;;-0.29;87.25;102383.81;4950633;28;20425;-78
2021/03/05 07:59:11;;;;;;;6.57;2.58;;;;;;;-0.15;87.75;102398.25;4952349;29;20041;-77
2021/03/05 08:01:51;;;;;;;5.30;2.70;;;;;;;-0.05;87.35;102394.38;4951651;28;20058;-79
2021/03/05 08:04:17;;;;;;;5.90;1.90;;;;;;;0.00;86.10;102397.72;4937842;29;20043;-77
2021/03/05 08:06:42;;;;;;;7.70;2.70;;;;;;;0.07;87.03;102390.41;4951820;28;20091;-79
2021/03/05 08:09:10;;;;;;;6.35;2.72;;;;;;;0.11;86.78;102400.78;4947408;29;20492;-78
2021/03/05 08:11:39;;;;;;;5.97;2.45;;;;;;;0.17;86.02;102400.59;4951396;28;20114;-78
2021/03/05 08:14:19;;;;;;;4.30;2.00;;;;;;;0.23;85.37;102402.09;4944201;29;20043;-77
2021/03/05 08:16:48;;;;;;;5.00;2.00;;;;;;;0.26;84.70;102404.66;4946562;29;20035;-78
2021/03/05 08:19:15;;;;;;;5.15;2.53;;;;;;;0.27;85.00;102411.66;4925360;29;20050;-79
2021/03/05 08:22:01;;;;;;;4.55;2.22;;;;;;;0.30;84.29;102410.69;4937050;28;20039;-77
2021/03/05 08:24:30;;;;;;;6.10;2.00;;;;;;;0.38;85.33;102406.81;4945672;28;20039;-78
2021/03/05 08:27:01;;;;;;;;;;;;;;;0.50;84.22;102408.13;4950300;28;20043;-78
2021/03/05 08:29:50;;;;;;;7.35;2.55;;;;;;;0.49;83.82;102406.41;4947513;28;19922;-78
2021/03/05 08:32:40;;;;;;;14.73;6.20;;;;;;;0.50;83.31;102413.41;4943609;28;20500;-78
2021/03/05 08:35:07;;;;;;;11.95;5.78;;;;;;;0.58;84.49;102416.63;4950219;28;20079;-78
2021/03/05 08:37:44;;;;;;;23.70;11.82;;;;;;;0.60;83.00;102430.59;4946327;28;20497;-78
2021/03/05 08:40:12;;;;;;;25.95;14.70;;;;;;;0.75;83.35;102431.81;4949841;28;20433;-78
2021/03/05 08:42:41;;;;;;;8.75;3.38;;;;;;;0.82;83.38;102435.06;4940378;28;20052;-78
2021/03/05 08:45:09;;;;;;;5.15;2.40;;;;;;;0.90;83.71;102432.97;4931121;29;20199;-78
2021/03/05 08:47:36;;;;;;;4.75;2.38;;;;;;;0.90;81.98;102431.19;4949028;28;20055;-78
2021/03/05 08:50:03;;;;;;;5.65;2.60;;;;;;;0.93;83.52;102438.13;4949188;28;20035;-78
2021/03/05 08:52:29;;;;;;;5.38;1.95;;;;;;;1.01;83.06;102440.47;4949029;28;20047;-78
2021/03/05 08:54:56;;;;;;;7.18;2.30;;;;;;;1.23;84.03;102435.16;4949644;28;20428;-78
2021/03/05 08:57:23;;;;;;;5.70;2.20;;;;;;;1.33;83.40;102436.50;4949192;28;20055;-78
2021/03/05 08:59:51;;;;;;;4.65;1.90;;;;;;;1.47;82.71;102439.41;4927649;28;20078;-78
2021/03/05 09:02:17;;;;;;;7.40;3.08;;;;;;;1.56;81.82;102433.72;4949635;28;20039;-78
2021/03/05 09:04:42;;;;;;;8.40;2.78;;;;;;;1.47;80.28;102436.78;4949859;28;20094;-78
2021/03/05 09:07:13;;;;;;;6.07;2.63;;;;;;;1.49;80.46;102423.47;4933908;29;20079;-78
2021/03/05 09:09:39;;;;;;;6.97;2.15;;;;;;;1.55;80.71;102432.03;4941343;28;20043;-78
2021/03/05 09:12:12;;;;;;;7.93;2.50;;;;;;;1.52;80.94;102442.72;4948569;28;20044;-78
2021/03/05 09:14:38;;;;;;;6.50;2.50;;;;;;;1.58;81.24;102441.59;4947049;28;20543;-78
2021/03/05 09:17:05;;;;;;;8.88;2.72;;;;;;;1.63;80.97;102444.91;4949898;28;20127;-78
2021/03/05 09:19:44;;;;;;;6.65;1.58;;;;;;;1.70;79.08;102437.56;4926856;28;20047;-78
2021/03/05 09:22:11;;;;;;;5.20;1.83;;;;;;;1.75;79.57;102433.78;4944227;28;20522;-78
2021/03/05 09:24:58;;;;;;;7.45;2.10;;;;;;;1.86;78.04;102441.25;4932004;28;20074;-78
2021/03/05 09:27:39;;;;;;;7.15;2.08;;;;;;;2.05;79.40;102445.75;4945798;28;20039;-78
2021/03/05 09:30:20;;;;;;;3.95;1.92;;;;;;;2.28;78.63;102434.09;4952399;29;20043;-78
2021/03/05 09:32:46;;;;;;;6.82;2.08;;;;;;;2.32;78.27;102447.13;4948442;28;20054;-78
2021/03/05 09:35:12;;;;;;;8.45;2.30;;;;;;;2.26;76.14;102444.75;4948873;28;20039;-78
2021/03/05 09:37:37;;;;;;;3.55;1.70;;;;;;;2.48;75.93;102456.09;4948226;28;20046;-78
2021/03/05 09:40:08;;;;;;;4.63;1.98;;;;;;;2.49;74.45;102452.50;4931852;29;20533;-79
2021/03/05 09:42:44;;;;;;;7.75;1.85;;;;;;;2.58;75.77;102455.66;4928388;29;20521;-78
2021/03/05 09:45:11;;;;;;;4.95;2.20;;;;;;;2.65;72.20;102447.34;4950706;29;20404;-79
2021/03/05 09:47:50;;;;;;;6.22;1.90;;;;;;;2.64;73.37;102456.22;4947200;28;20501;-79
2021/03/05 09:50:20;;;;;;;6.60;2.20;;;;;;;2.80;73.19;102466.97;4946071;28;20051;-79
2021/03/05 09:52:46;;;;;;;4.78;1.83;;;;;;;2.74;72.27;102474.38;4931359;29;20047;-78
2021/03/05 09:55:29;;;;;;;6.28;2.10;;;;;;;2.74;72.03;102474.38;4930785;28;20532;-78
2021/03/05 09:58:09;;;;;;;4.68;2.15;;;;;;;2.79;71.88;102472.34;4922660;29;20043;-79
2021/03/05 10:00:35;;;;;;;4.63;2.30;;;;;;;2.79;71.57;102481.19;4946948;28;20077;-79
2021/03/05 10:03:09;;;;;;;5.75;2.00;;;;;;;2.71;70.45;102480.66;4949046;28;20031;-79
2021/03/05 10:05:37;;;;;;;4.32;2.03;;;;;;;2.74;70.57;102484.97;4943154;28;20055;-79
2021/03/05 10:08:30;;;;;;;5.78;2.05;;;;;;;2.94;71.33;102488.38;4948529;28;20065;-79
2021/03/05 10:11:01;;;;;;;7.20;2.20;;;;;;;2.82;69.97;102496.94;4933341;28;20604;-78
2021/03/05 10:13:50;;;;;;;6.00;2.15;;;;;;;2.78;68.53;102482.09;4952882;28;20044;-79
2021/03/05 10:16:22;;;;;;;7.00;3.17;;;;;;;2.84;68.74;102497.69;4955071;29;20047;-78
2021/03/05 10:18:51;;;;;;;7.90;2.30;;;;;;;2.82;67.00;102496.94;4955927;29;20051;-79
2021/03/05 10:21:19;;;;;;;4.82;1.98;;;;;;;2.83;65.44;102503.94;4950401;28;20078;-78
2021/03/05 10:23:45;;;;;;;5.45;2.10;;;;;;;2.90;65.17;102497.41;4951605;28;20074;-78
2021/03/05 10:26:27;;;;;;;5.63;2.17;;;;;;;2.99;65.68;102505.84;4952942;28;20043;-78
2021/03/05 10:29:00;;;;;;;6.13;1.88;;;;;;;3.01;65.51;102501.34;4934343;28;20388;-78
2021/03/05 10:31:46;;;;;;;6.25;2.65;;;;;;;3.07;67.37;102501.06;4951686;28;20043;-78
2021/03/05 10:34:26;;;;;;;4.57;2.83;;;;;;;3.12;63.28;102505.19;4947792;28;20094;-78
2021/03/05 10:36:52;;;;;;;;;;;;;;;3.39;65.14;102504.78;4915684;29;20050;-78
2021/03/05 10:39:18;;;;;;;3.00;1.92;;;;;;;3.39;62.82;102510.97;4948123;28;20403;-78
2021/03/05 10:42:11;;;;;;;5.25;1.88;;;;;;;3.32;61.09;102514.84;4951225;28;20062;-78
2021/03/05 10:44:37;;;;;;;7.45;2.40;;;;;;;3.34;60.11;102510.34;4931135;29;20051;-78
2021/03/05 10:47:05;;;;;;;4.10;1.88;;;;;;;3.51;60.70;102519.22;4934674;29;20117;-78
2021/03/05 10:49:30;;;;;;;3.88;1.10;;;;;;;3.48;58.96;102522.94;4950202;28;20074;-78
2021/03/05 10:51:57;;;;;;;2.35;1.00;;;;;;;3.54;57.60;102524.38;4950384;28;20085;-78
2021/03/05 10:54:23;;;;;;;3.00;1.10;;;;;;;3.68;58.87;102519.25;4935330;29;20386;-78
2021/03/05 10:56:52;;;;;;;3.88;1.45;;;;;;;3.87;62.68;102523.63;4935889;28;21842;-78
2021/03/05 10:59:19;;;;;;;3.45;1.20;;;;;;;3.99;57.66;102525.66;4952079;28;20137;-78
2021/03/05 11:01:46;;;;;;;3.67;1.50;;;;;;;4.01;59.97;102531.75;4923894;29;20046;-78
2021/03/05 11:04:11;;;;;;;4.05;1.20;;;;;;;3.95;56.33;102521.47;4940674;28;20066;-79
2021/03/05 11:06:37;;;;;;;3.83;1.30;;;;;;;3.97;57.93;102531.06;4949591;28;21764;-78
2021/03/05 11:09:04;;;;;;;4.65;2.15;;;;;;;3.99;59.08;102530.97;4952052;28;20500;-78
2021/03/05 11:11:30;;;;;;;4.25;1.75;;;;;;;3.98;58.78;102529.25;4949048;29;20511;-78
2021/03/05 11:13:55;;;;;;;1.95;0.95;;;;;;;4.21;60.63;102530.72;4935200;29;20070;-79
2021/03/05 11:16:21;;;;;;;5.72;1.42;;;;;;;4.33;58.06;102532.72;4917974;29;20070;-78
2021/03/05 11:18:46;;;;;;;5.68;1.20;;;;;;;4.45;58.70;102536.53;4933614;29;20063;-78
2021/03/05 11:21:12;;;;;;;3.78;1.48;;;;;;;4.51;57.58;102546.84;4941197;28;20134;-78
2021/03/05 11:23:37;;;;;;;3.55;1.13;;;;;;;4.57;60.26;102548.31;4929843;29;20143;-78
2021/03/05 11:26:03;;;;;;;6.35;1.65;;;;;;;4.63;58.48;102545.31;4932214;29;20047;-78
2021/03/05 11:28:28;;;;;;;5.63;1.40;;;;;;;4.63;58.55;102545.31;4930891;29;20126;-78
2021/03/05 11:30:54;;;;;;;6.00;1.65;;;;;;;4.52;56.04;102540.59;4929263;28;20071;-79
2021/03/05 11:33:19;;;;;;;4.53;1.73;;;;;;;4.48;56.99;102547.00;4938908;28;20051;-79
2021/03/05 11:35:45;;;;;;;3.08;1.25;;;;;;;4.37;58.21;102544.91;4924360;28;20118;-78
2021/03/05 11:38:10;;;;;;;4.60;1.50;;;;;;;4.46;59.19;102549.75;4931608;29;20039;-78